Time;durP1;ratioP1;P1;durP2;ratioP2;P2;SDS_P1;SDS_P2;PMS_P1;PMS_P2;Temp;Humidity;BMP_temperature;BMP_pressure;BME280_temperature;BME280_humidity;BME280_pressure;Samples;Min_cycle;Max_cycle;Signal;HPM_P1;HPM_P2
2023/11/28 00:02:04;;;;;;;6.30;1.80;;;9.00;99.90;;;;;;7403380;19;20074;-76
2023/11/28 00:04:59;;;;;;;12.45;2.25;;;9.10;99.90;;;;;;7399772;19;20006;-74
2023/11/28 00:07:32;;;;;;;12.20;2.17;;;8.90;99.90;;;;;;7397523;19;20005;-75
2023/11/28 00:10:32;;;;;;;;;;;;;;;;;;;;;
2023/11/28 00:13:01;;;;;;;5.40;2.33;;;9.00;99.90;;;;;;7392695;19;20007;-75
2023/11/28 00:15:32;;;;;;;7.32;2.60;;;9.00;99.90;;;;;;7412835;19;20006;-75
2023/11/28 00:18:01;;;;;;;7.25;2.70;;;9.00;99.90;;;;;;7390191;19;20007;-75
2023/11/28 00:20:31;;;;;;;4.65;2.42;;;9.10;99.90;;;;;;7390534;19;20046;-74
2023/11/28 00:23:03;;;;;;;9.65;2.95;;;9.10;99.90;;;;;;7390779;19;20019;-75
2023/11/28 00:25:31;;;;;;;12.18;3.67;;;9.30;99.90;;;;;;7388511;19;20286;-75
2023/11/28 00:28:00;;;;;;;8.23;3.40;;;9.30;99.90;;;;;;7389319;19;20003;-75
2023/11/28 00:30:32;;;;;;;9.55;3.47;;;9.40;99.90;;;;;;7411933;19;20010;-75
2023/11/28 00:33:01;;;;;;;11.32;3.38;;;9.30;99.90;;;;;;7389834;19;20030;-75
2023/11/28 00:35:30;;;;;;;6.25;2.90;;;9.30;99.90;;;;;;7390388;19;20058;-75
2023/11/28 00:37:59;;;;;;;7.65;3.20;;;9.10;99.90;;;;;;7394915;19;20017;-75
2023/11/28 00:40:31;;;;;;;9.07;3.15;;;9.10;99.90;;;;;;7396313;19;20023;-74
2023/11/28 00:43:00;;;;;;;26.70;3.60;;;9.10;99.90;;;;;;7393542;19;20025;-74
2023/11/28 00:45:32;;;;;;;6.32;2.70;;;9.10;99.90;;;;;;7419147;19;20018;-75
2023/11/28 00:48:00;;;;;;;4.60;2.28;;;9.20;99.90;;;;;;7393378;19;20013;-75
2023/11/28 00:50:29;;;;;;;4.50;2.45;;;9.20;99.90;;;;;;7391197;19;20003;-74
2023/11/28 00:53:01;;;;;;;6.00;2.53;;;9.20;99.90;;;;;;7393078;19;20007;-75
2023/11/28 00:55:29;;;;;;;3.60;1.67;;;9.00;99.90;;;;;;7395715;19;20006;-76
2023/11/28 00:57:59;;;;;;;6.97;2.50;;;8.90;99.90;;;;;;7401445;19;20065;-75
2023/11/28 01:00:28;;;;;;;4.07;2.65;;;9.00;99.90;;;;;;7414046;19;20002;-75
2023/11/28 01:02:59;;;;;;;5.65;2.13;;;8.80;99.90;;;;;;7393996;19;20010;-75
2023/11/28 01:05:28;;;;;;;3.38;2.30;;;8.80;99.90;;;;;;7381928;19;20003;-75
2023/11/28 01:07:57;;;;;;;4.22;1.95;;;9.00;99.90;;;;;;7383940;19;20011;-76
2023/11/28 01:10:28;;;;;;;5.07;2.72;;;9.10;99.90;;;;;;7386146;19;20054;-75
2023/11/28 01:12:56;;;;;;;3.92;2.50;;;8.90;99.90;;;;;;7384112;19;20122;-75
2023/11/28 01:15:25;;;;;;;7.70;2.63;;;8.90;99.90;;;;;;7405662;19;20674;-75
2023/11/28 01:17:53;;;;;;;6.80;2.40;;;8.60;99.90;;;;;;7383759;19;20078;-74
2023/11/28 01:20:25;;;;;;;5.47;2.20;;;8.50;99.90;;;;;;7383641;19;20006;-74
2023/11/28 01:22:51;;;;;;;;;;;8.70;99.90;;;;;;7385619;19;20028;-75
2023/11/28 01:25:19;;;;;;;3.03;2.13;;;8.80;99.90;;;;;;7385815;19;19911;-75
2023/11/28 01:27:48;;;;;;;8.80;2.67;;;8.90;99.90;;;;;;7402408;19;20082;-75
2023/11/28 01:30:17;;;;;;;7.75;2.40;;;9.10;99.90;;;;;;7383242;19;20043;-74
2023/11/28 01:36:00;;;;;;;4.03;2.43;;;9.10;99.90;;;;;;7379211;19;20066;-74
2023/11/28 01:38:29;;;;;;;4.78;2.72;;;9.00;99.90;;;;;;7381899;19;20252;-75
2023/11/28 01:40:59;;;;;;;3.88;2.42;;;9.10;99.90;;;;;;7382783;19;20062;-76
2023/11/28 01:43:28;;;;;;;3.50;2.17;;;9.00;99.90;;;;;;7383265;19;20019;-75
2023/11/28 01:45:57;;;;;;;5.15;2.90;;;9.00;99.90;;;;;;7382405;19;20022;-75
2023/11/28 01:48:26;;;;;;;5.07;2.78;;;9.10;99.90;;;;;;7403978;19;20032;-75
2023/11/28 01:50:55;;;;;;;3.95;2.60;;;9.10;99.90;;;;;;7385290;19;20239;-75
2023/11/28 01:53:26;;;;;;;4.95;2.63;;;9.00;99.90;;;;;;7386459;19;20013;-75
2023/11/28 01:55:55;;;;;;;;;;;9.00;99.90;;;;;;7383051;19;20006;-76
2023/11/28 01:58:24;;;;;;;6.07;2.78;;;9.10;99.90;;;;;;7384155;19;19907;-75
2023/11/28 02:00:53;;;;;;;5.38;2.83;;;9.30;99.90;;;;;;7384978;19;20006;-75
2023/11/28 02:03:25;;;;;;;9.18;3.25;;;9.30;99.90;;;;;;7405882;19;20007;-74
2023/11/28 02:05:53;;;;;;;;;;;9.10;99.90;;;;;;7382055;19;20066;-75
2023/11/28 02:08:22;;;;;;;5.68;2.97;;;9.10;99.90;;;;;;7380169;19;19939;-75
2023/11/28 02:10:55;;;;;;;6.45;3.05;;;9.30;99.90;;;;;;7383289;19;20023;-75
2023/11/28 02:13:24;;;;;;;7.65;3.20;;;9.30;99.90;;;;;;7380875;19;20403;-75
2023/11/28 02:15:54;;;;;;;8.27;3.40;;;9.30;99.90;;;;;;7375656;19;20379;-74
2023/11/28 02:18:23;;;;;;;7.60;3.40;;;9.30;99.90;;;;;;7402536;19;20091;-75
2023/11/28 02:20:52;;;;;;;16.50;3.22;;;9.40;99.90;;;;;;7380452;19;20010;-75
2023/11/28 02:23:20;;;;;;;8.15;3.35;;;9.10;99.90;;;;;;7380661;19;20002;-75
2023/11/28 02:25:53;;;;;;;7.55;3.13;;;9.10;99.90;;;;;;7378820;19;20068;-76
2023/11/28 02:28:27;;;;;;;6.28;3.05;;;8.80;99.90;;;;;;7379569;19;20058;-75
2023/11/28 02:30:59;;;;;;;8.52;3.47;;;8.90;99.90;;;;;;7380967;19;20010;-75
2023/11/28 02:33:28;;;;;;;8.48;3.63;;;9.10;99.90;;;;;;7401773;19;20023;-75
2023/11/28 02:35:57;;;;;;;6.78;3.70;;;9.10;99.90;;;;;;7378125;19;20011;-76
2023/11/28 02:38:25;;;;;;;12.00;3.53;;;8.80;99.90;;;;;;7384516;19;20007;-75
2023/11/28 02:40:54;;;;;;;9.23;3.47;;;9.20;99.90;;;;;;7383220;19;20013;-75
2023/11/28 02:43:25;;;;;;;8.80;3.03;;;8.90;99.90;;;;;;7380390;19;20018;-75
2023/11/28 02:45:54;;;;;;;7.22;3.55;;;9.10;99.90;;;;;;7380186;19;20010;-75
2023/11/28 02:48:24;;;;;;;6.70;3.63;;;9.20;99.90;;;;;;7404097;19;20023;-76
2023/11/28 02:50:53;;;;;;;7.70;3.20;;;9.20;99.90;;;;;;7382437;19;20307;-75
2023/11/28 02:53:22;;;;;;;7.07;3.33;;;9.20;99.90;;;;;;7379179;19;20362;-76
2023/11/28 02:55:51;;;;;;;3.67;3.05;;;9.20;99.90;;;;;;7379963;19;20385;-76
2023/11/28 02:58:19;;;;;;;9.65;4.13;;;9.00;99.90;;;;;;7380960;19;20358;-75
2023/11/28 03:00:51;;;;;;;5.75;2.65;;;9.10;99.90;;;;;;7403965;19;20027;-75
2023/11/28 03:03:19;;;;;;;;;;;8.90;99.90;;;;;;7381315;19;20133;-75
2023/11/28 03:05:48;;;;;;;9.77;2.72;;;8.80;99.90;;;;;;7383663;19;19913;-75
2023/11/28 03:08:17;;;;;;;8.23;3.72;;;8.70;99.90;;;;;;7380046;19;20075;-76
2023/11/28 03:10:45;;;;;;;9.73;3.47;;;8.70;99.90;;;;;;7381984;19;20002;-75
2023/11/28 03:13:14;;;;;;;8.55;3.58;;;8.90;99.90;;;;;;7386123;19;20374;-75
2023/11/28 03:15:43;;;;;;;4.75;3.15;;;9.00;99.90;;;;;;7405624;19;20018;-76
2023/11/28 03:18:14;;;;;;;6.68;3.60;;;8.90;99.90;;;;;;7383153;19;20011;-76
2023/11/28 03:20:46;;;;;;;10.45;3.80;;;8.90;99.90;;;;;;7382497;19;20006;-75
2023/11/28 03:23:14;;;;;;;6.65;3.55;;;9.00;99.90;;;;;;7381390;19;20342;-75
2023/11/28 03:25:43;;;;;;;6.40;3.67;;;9.10;99.90;;;;;;7378259;19;20007;-75
2023/11/28 03:28:12;;;;;;;12.35;4.60;;;9.10;99.90;;;;;;7377814;19;20074;-75
2023/11/28 03:30:41;;;;;;;11.18;4.15;;;9.10;99.90;;;;;;7403182;19;20035;-75
2023/11/28 03:33:14;;;;;;;12.20;4.22;;;9.20;99.90;;;;;;7377595;19;20249;-75
2023/11/28 03:35:43;;;;;;;15.15;4.45;;;9.00;99.90;;;;;;7377165;19;20011;-75
2023/11/28 03:38:11;;;;;;;7.32;3.40;;;9.00;99.90;;;;;;7377239;19;20082;-75
2023/11/28 03:40:40;;;;;;;6.85;3.95;;;9.00;99.90;;;;;;7378540;19;20015;-75
2023/11/28 03:43:09;;;;;;;12.60;4.18;;;8.90;99.90;;;;;;7379376;19;20239;-75
2023/11/28 03:45:38;;;;;;;11.07;3.88;;;8.90;99.90;;;;;;7403571;19;20070;-75
2023/11/28 03:48:07;;;;;;;7.90;4.20;;;8.80;99.90;;;;;;7378502;19;20087;-74
2023/11/28 03:50:40;;;;;;;8.85;4.45;;;8.70;99.90;;;;;;7377783;19;20038;-74
2023/11/28 03:53:08;;;;;;;11.55;3.75;;;8.80;99.90;;;;;;7379454;19;20047;-74
2023/11/28 03:55:37;;;;;;;6.85;3.78;;;8.90;99.90;;;;;;7381468;19;20007;-74
2023/11/28 03:58:07;;;;;;;9.93;4.30;;;9.10;99.90;;;;;;7378448;19;20010;-75
2023/11/28 04:00:35;;;;;;;8.98;4.82;;;9.00;99.90;;;;;;7399276;19;20007;-74
2023/11/28 04:03:04;;;;;;;9.15;4.18;;;9.10;99.90;;;;;;7376853;19;19999;-75
2023/11/28 04:05:33;;;;;;;6.70;4.03;;;9.30;99.90;;;;;;7378103;19;20023;-75
2023/11/28 04:08:04;;;;;;;12.80;4.45;;;9.40;99.90;;;;;;7378072;19;20026;-75
2023/11/28 04:10:33;;;;;;;15.10;4.55;;;9.20;99.90;;;;;;7378234;19;20077;-75
2023/11/28 04:13:01;;;;;;;23.65;5.13;;;9.30;99.90;;;;;;7380120;19;20289;-75
2023/11/28 04:15:30;;;;;;;11.98;4.35;;;9.30;99.90;;;;;;7398642;19;20006;-75
2023/11/28 04:17:59;;;;;;;10.88;4.18;;;9.40;99.90;;;;;;7379340;19;20012;-75
2023/11/28 04:20:27;;;;;;;19.02;5.38;;;9.30;99.90;;;;;;7382708;19;20049;-75
2023/11/28 04:22:56;;;;;;;11.13;4.18;;;9.40;99.90;;;;;;7378295;19;20011;-75
2023/11/28 04:25:27;;;;;;;9.88;3.55;;;9.40;99.90;;;;;;7375933;19;20059;-75
2023/11/28 04:27:56;;;;;;;11.43;3.60;;;9.40;99.90;;;;;;7377369;19;20082;-74
2023/11/28 04:30:25;;;;;;;7.47;3.70;;;9.30;99.90;;;;;;7399538;19;20036;-75
2023/11/28 04:32:56;;;;;;;13.90;3.72;;;9.30;99.90;;;;;;7379314;19;20020;-75
2023/11/28 04:35:24;;;;;;;;;;;9.40;99.90;;;;;;7378092;19;20006;-76
2023/11/28 04:37:53;;;;;;;5.25;2.92;;;9.20;99.90;;;;;;7376964;19;19968;-73
2023/11/28 04:40:22;;;;;;;10.00;3.70;;;9.30;99.90;;;;;;7382198;19;20066;-75
2023/11/28 04:42:53;;;;;;;14.27;3.15;;;9.20;99.90;;;;;;7395209;19;20003;-74
2023/11/28 04:45:22;;;;;;;7.35;3.17;;;9.20;99.90;;;;;;7404928;19;20023;-74
2023/11/28 04:47:51;;;;;;;6.05;3.05;;;9.30;99.90;;;;;;7383058;19;20020;-74
2023/11/28 04:50:19;;;;;;;4.53;2.45;;;9.20;99.90;;;;;;7383510;19;20239;-74
2023/11/28 04:52:48;;;;;;;4.15;2.42;;;9.30;99.90;;;;;;7383412;19;20006;-74
2023/11/28 04:55:17;;;;;;;7.28;2.75;;;9.20;99.90;;;;;;7385928;19;20007;-74
2023/11/28 04:57:46;;;;;;;4.90;2.28;;;9.30;99.90;;;;;;7404898;19;20095;-75
2023/11/28 05:00:18;;;;;;;4.03;2.00;;;9.40;99.90;;;;;;7386697;19;20086;-75
2023/11/28 05:02:47;;;;;;;8.80;2.75;;;9.30;99.90;;;;;;7383994;19;20490;-73
2023/11/28 05:05:16;;;;;;;4.75;2.08;;;9.40;99.90;;;;;;7385701;19;19999;-74
2023/11/28 05:07:45;;;;;;;8.30;2.35;;;9.50;99.90;;;;;;7383857;19;20208;-74
2023/11/28 05:10:13;;;;;;;10.65;2.55;;;9.50;99.90;;;;;;7387840;19;20003;-74
2023/11/28 05:12:39;;;;;;;1.92;1.65;;;9.40;99.90;;;;;;7410571;19;20072;-75
2023/11/28 05:15:09;;;;;;;3.88;1.90;;;9.40;99.90;;;;;;7384689;19;20027;-75
2023/11/28 05:17:40;;;;;;;14.85;1.80;;;9.30;99.90;;;;;;7382322;19;20019;-76
2023/11/28 05:20:11;;;;;;;17.80;2.42;;;9.20;99.90;;;;;;7384706;19;20082;-75
2023/11/28 05:22:40;;;;;;;5.70;1.75;;;9.30;99.90;;;;;;7383214;19;20011;-75
2023/11/28 05:25:10;;;;;;;5.50;1.52;;;9.20;99.90;;;;;;7380537;19;20422;-75
2023/11/28 05:27:38;;;;;;;5.65;1.70;;;9.10;99.90;;;;;;7404316;19;20024;-75
2023/11/28 05:30:09;;;;;;;3.25;1.52;;;9.00;99.90;;;;;;7382208;19;20078;-76
2023/11/28 05:32:40;;;;;;;7.00;1.60;;;9.20;99.90;;;;;;7385062;19;20396;-74
2023/11/28 05:35:09;;;;;;;5.85;1.88;;;9.20;99.90;;;;;;7386822;19;20072;-75
2023/11/28 05:37:38;;;;;;;11.45;1.90;;;9.30;99.90;;;;;;7389780;19;20288;-76
2023/11/28 05:40:09;;;;;;;3.10;1.60;;;9.50;99.90;;;;;;7386315;19;20240;-75
2023/11/28 05:42:38;;;;;;;3.72;1.88;;;9.70;99.90;;;;;;7409068;19;20002;-76
2023/11/28 05:45:08;;;;;;;2.05;1.65;;;9.40;99.90;;;;;;7386326;19;20078;-75
2023/11/28 05:47:41;;;;;;;4.37;1.30;;;9.20;99.90;;;;;;7385213;19;20066;-75
2023/11/28 05:50:10;;;;;;;4.60;1.80;;;9.50;99.90;;;;;;7384028;19;20003;-75
2023/11/28 05:52:39;;;;;;;308.92;14.88;;;9.50;99.90;;;;;;7384426;19;20006;-75
2023/11/28 05:55:09;;;;;;;5.50;1.60;;;9.60;99.90;;;;;;7381133;19;20410;-75
2023/11/28 05:57:37;;;;;;;8.25;1.65;;;9.60;99.90;;;;;;7400601;19;20062;-75
2023/11/28 06:00:08;;;;;;;6.20;1.83;;;9.70;99.90;;;;;;7380846;19;20002;-75
2023/11/28 06:02:36;;;;;;;3.65;1.60;;;9.50;99.90;;;;;;7382563;19;20003;-75
2023/11/28 06:05:09;;;;;;;3.75;1.95;;;9.60;99.90;;;;;;7380964;19;20014;-75
2023/11/28 06:07:38;;;;;;;5.05;2.22;;;9.70;99.90;;;;;;7381617;19;20028;-75
2023/11/28 06:10:10;;;;;;;4.60;1.90;;;9.70;99.90;;;;;;7384716;19;20002;-76
2023/11/28 06:12:41;;;;;;;6.70;1.70;;;9.60;99.90;;;;;;7403699;19;20669;-76
2023/11/28 06:15:11;;;;;;;2.42;1.77;;;9.60;99.90;;;;;;7383935;19;20120;-75
2023/11/28 06:17:40;;;;;;;8.35;1.92;;;9.70;99.90;;;;;;7384547;19;20007;-76
2023/11/28 06:20:14;;;;;;;2.47;1.40;;;9.60;99.90;;;;;;7382255;19;20082;-75
2023/11/28 06:22:45;;;;;;;5.00;2.00;;;9.70;99.90;;;;;;7384014;19;20044;-75
2023/11/28 06:25:14;;;;;;;11.25;2.45;;;9.70;99.90;;;;;;7383482;19;20011;-76
2023/11/28 06:27:43;;;;;;;18.17;2.67;;;9.70;99.90;;;;;;7404790;19;20586;-75
2023/11/28 06:30:13;;;;;;;5.32;2.70;;;9.40;99.90;;;;;;7380565;19;20023;-76
2023/11/28 06:32:42;;;;;;;3.72;2.15;;;9.50;99.90;;;;;;7380003;19;20006;-75
2023/11/28 06:35:13;;;;;;;4.00;2.22;;;9.60;99.90;;;;;;7380322;19;20003;-75
2023/11/28 06:37:42;;;;;;;5.63;2.63;;;9.70;99.90;;;;;;7381672;19;20041;-75
2023/11/28 06:40:21;;;;;;;6.00;2.70;;;9.70;99.90;;;;;;7381269;19;20014;-76
2023/11/28 06:42:50;;;;;;;5.05;2.72;;;9.60;99.90;;;;;;7398183;19;20234;-75
2023/11/28 06:45:18;;;;;;;12.15;3.08;;;9.50;99.90;;;;;;7402014;19;20028;-75
2023/11/28 06:47:47;;;;;;;4.18;2.92;;;9.50;99.90;;;;;;7379661;19;20083;-75
2023/11/28 06:50:19;;;;;;;6.13;2.75;;;9.50;99.90;;;;;;7380679;19;19998;-74
2023/11/28 06:52:48;;;;;;;7.78;3.30;;;9.60;99.90;;;;;;7382151;19;20173;-74
2023/11/28 06:55:16;;;;;;;9.57;3.63;;;9.40;99.90;;;;;;7382698;19;20019;-76
2023/11/28 06:57:45;;;;;;;5.93;2.47;;;9.40;99.90;;;;;;7399556;19;20011;-74
2023/11/28 07:00:15;;;;;;;14.05;3.30;;;9.40;99.90;;;;;;7378671;19;20011;-76
2023/11/28 07:02:44;;;;;;;6.97;3.20;;;9.40;99.90;;;;;;7380128;19;20003;-75
2023/11/28 07:05:14;;;;;;;4.82;3.38;;;9.40;99.90;;;;;;7381752;19;20057;-74
2023/11/28 07:07:45;;;;;;;4.57;2.90;;;9.60;99.90;;;;;;7379431;19;20002;-74
2023/11/28 07:10:15;;;;;;;10.38;3.90;;;9.60;99.90;;;;;;7379779;19;20015;-74
2023/11/28 07:12:44;;;;;;;19.42;2.90;;;9.40;99.90;;;;;;7400639;19;20007;-75
2023/11/28 07:15:13;;;;;;;4.53;2.65;;;9.30;99.90;;;;;;7381982;19;20225;-75
2023/11/28 07:17:42;;;;;;;5.00;2.80;;;9.40;99.90;;;;;;7378246;19;20013;-75
2023/11/28 07:20:13;;;;;;;4.47;3.10;;;9.30;99.90;;;;;;7380685;19;20030;-75
2023/11/28 07:22:41;;;;;;;5.70;3.07;;;8.90;99.90;;;;;;7380681;19;20003;-74
2023/11/28 07:25:14;;;;;;;8.70;3.13;;;9.10;99.90;;;;;;7380777;19;20024;-74
2023/11/28 07:27:43;;;;;;;9.07;4.47;;;9.10;99.90;;;;;;7404666;19;20007;-74
2023/11/28 07:30:12;;;;;;;4.03;3.45;;;9.20;99.90;;;;;;7379774;19;20006;-75
2023/11/28 07:32:41;;;;;;;4.85;3.58;;;9.10;99.90;;;;;;7386103;19;20131;-75
2023/11/28 07:35:10;;;;;;;9.95;4.00;;;8.90;99.90;;;;;;7380437;19;20002;-75
2023/11/28 07:37:38;;;;;;;13.70;4.05;;;8.90;99.90;;;;;;7381412;19;20071;-74
2023/11/28 07:40:09;;;;;;;7.00;3.80;;;9.00;99.90;;;;;;7381863;19;20043;-75
2023/11/28 07:42:40;;;;;;;5.10;3.67;;;9.10;99.90;;;;;;7404555;19;20657;-75
2023/11/28 07:45:10;;;;;;;4.68;3.70;;;9.00;99.90;;;;;;7381574;19;20454;-74
2023/11/28 07:47:39;;;;;;;8.40;3.90;;;9.10;99.90;;;;;;7378847;19;20003;-75
2023/11/28 07:50:09;;;;;;;5.95;3.80;;;9.00;99.90;;;;;;7379257;19;20007;-74
2023/11/28 07:52:38;;;;;;;11.13;4.43;;;9.10;99.90;;;;;;7379023;19;20007;-75
2023/11/28 07:55:11;;;;;;;8.23;4.25;;;9.20;99.90;;;;;;7378894;19;20003;-75
2023/11/28 07:57:42;;;;;;;6.05;3.80;;;9.10;99.90;;;;;;7399023;19;20011;-75
2023/11/28 08:00:12;;;;;;;4.55;3.15;;;9.30;99.90;;;;;;7388708;19;20019;-74
2023/11/28 08:02:41;;;;;;;7.63;3.70;;;9.10;99.90;;;;;;7388090;19;20020;-77
2023/11/28 08:05:10;;;;;;;7.85;3.85;;;9.10;99.90;;;;;;7390607;19;20007;-75
2023/11/28 08:07:40;;;;;;;13.73;3.83;;;9.20;99.90;;;;;;7388525;19;20011;-74
2023/11/28 08:10:11;;;;;;;5.40;3.45;;;9.30;99.90;;;;;;7385999;19;20395;-73
2023/11/28 08:12:43;;;;;;;5.30;3.10;;;9.10;99.90;;;;;;7402271;19;20358;-74
2023/11/28 08:15:13;;;;;;;8.63;3.65;;;8.80;99.90;;;;;;7386103;19;20242;-75
2023/11/28 08:17:42;;;;;;;6.20;3.53;;;8.90;99.90;;;;;;7384403;19;20007;-74
2023/11/28 08:20:13;;;;;;;7.57;4.00;;;9.00;99.90;;;;;;7389454;19;20013;-76
2023/11/28 08:22:44;;;;;;;15.20;6.15;;;9.10;99.90;;;;;;7388107;19;20021;-76
2023/11/28 08:25:13;;;;;;;11.73;4.63;;;9.30;99.90;;;;;;7385143;19;20003;-74
2023/11/28 08:28:01;;;;;;;8.60;4.60;;;9.40;99.90;;;;;;7407961;19;20023;-82
2023/11/28 08:30:32;;;;;;;8.65;4.72;;;9.40;99.90;;;;;;7391953;19;20038;-80
2023/11/28 08:33:01;;;;;;;10.68;5.63;;;9.40;99.90;;;;;;7388211;19;20014;-76
2023/11/28 08:35:30;;;;;;;15.70;5.60;;;9.50;99.90;;;;;;7385354;19;20007;-75
2023/11/28 08:37:58;;;;;;;11.07;4.90;;;9.60;99.90;;;;;;7386074;19;20066;-75
2023/11/28 08:40:47;;;;;;;9.60;4.57;;;9.50;99.90;;;;;;7388926;19;19998;-83
2023/11/28 08:43:24;;;;;;;5.55;3.65;;;9.40;99.90;;;;;;7388717;19;20067;-82
2023/11/28 08:45:53;;;;;;;7.60;4.38;;;9.30;99.90;;;;;;7388042;19;20011;-80
2023/11/28 08:48:24;;;;;;;8.52;4.22;;;9.30;99.90;;;;;;7412525;19;20006;-77
2023/11/28 08:50:53;;;;;;;7.88;4.32;;;9.30;99.90;;;;;;7387567;19;20010;-77
2023/11/28 08:53:22;;;;;;;11.00;4.30;;;9.20;99.90;;;;;;7386714;19;20014;-79
2023/11/28 08:55:53;;;;;;;7.35;4.03;;;9.20;99.90;;;;;;7386967;19;20007;-75
2023/11/28 08:58:24;;;;;;;7.05;4.53;;;9.30;99.90;;;;;;7388470;19;20015;-76
2023/11/28 09:00:56;;;;;;;12.07;4.53;;;9.20;99.90;;;;;;7389787;19;20013;-76
2023/11/28 09:04:08;;;;;;;7.22;4.78;;;9.30;99.90;;;;;;7411463;19;20010;-82
2023/11/28 09:07:11;;;;;;;8.05;4.72;;;9.10;99.90;;;;;;7393742;19;20023;-80
2023/11/28 09:09:42;;;;;;;17.52;5.50;;;9.10;99.90;;;;;;7396148;19;20014;-80
2023/11/28 09:12:12;;;;;;;8.73;4.65;;;9.10;99.90;;;;;;7392485;19;20103;-79
2023/11/28 09:14:43;;;;;;;11.75;5.13;;;9.30;99.90;;;;;;7392401;19;20023;-78
2023/11/28 09:17:16;;;;;;;13.07;4.90;;;9.40;99.90;;;;;;7392271;19;20006;-80
2023/11/28 09:19:44;;;;;;;14.00;4.55;;;9.30;99.90;;;;;;7394659;19;20428;-79
2023/11/28 09:22:13;;;;;;;12.05;4.90;;;9.20;99.90;;;;;;7387196;19;20010;-78
2023/11/28 09:24:42;;;;;;;12.98;4.43;;;9.20;99.90;;;;;;7407857;19;20373;-78
2023/11/28 09:27:12;;;;;;;8.07;4.60;;;9.10;99.90;;;;;;7391066;19;20007;-76
2023/11/28 09:29:43;;;;;;;7.10;4.00;;;9.10;99.90;;;;;;7395769;19;20018;-75
2023/11/28 09:32:13;;;;;;;6.50;3.67;;;9.30;99.90;;;;;;7383430;19;20003;-74
2023/11/28 09:34:45;;;;;;;8.07;4.20;;;9.30;99.90;;;;;;7382673;19;20260;-74
2023/11/28 09:37:13;;;;;;;5.93;4.03;;;9.50;99.90;;;;;;7387753;19;20014;-77
2023/11/28 09:39:43;;;;;;;12.40;4.00;;;9.70;99.90;;;;;;7408997;19;20608;-77
2023/11/28 09:42:13;;;;;;;7.55;4.70;;;9.50;99.90;;;;;;7387055;19;20054;-76
2023/11/28 09:44:45;;;;;;;7.63;4.60;;;9.40;99.90;;;;;;7384841;19;20074;-75
2023/11/28 09:47:20;;;;;;;10.15;4.93;;;9.60;99.90;;;;;;7383644;19;20423;-74
2023/11/28 09:56:03;;;;;;;10.20;4.63;;;9.90;99.90;;;;;;7409492;19;20006;-79
2023/11/28 09:58:35;;;;;;;6.45;4.68;;;9.80;99.90;;;;;;7366776;19;20015;-77
2023/11/28 10:01:08;;;;;;;11.43;4.50;;;9.90;99.90;;;;;;7415359;19;20236;-79
2023/11/28 10:03:55;;;;;;;11.73;4.88;;;9.90;99.90;;;;;;7414849;19;20007;-82
2023/11/28 10:06:24;;;;;;;8.77;4.35;;;9.90;99.90;;;;;;7390749;19;20067;-77
2023/11/28 10:09:00;;;;;;;12.25;4.72;;;9.90;99.90;;;;;;7388566;19;20063;-81
2023/11/28 10:11:33;;;;;;;9.07;4.55;;;9.90;99.90;;;;;;7389691;19;20018;-78
2023/11/28 10:14:03;;;;;;;10.93;5.15;;;9.70;99.90;;;;;;7391901;19;20014;-78
2023/11/28 10:16:55;;;;;;;8.30;4.53;;;9.70;99.90;;;;;;7394390;19;20024;-78
2023/11/28 10:19:35;;;;;;;;;;;9.80;99.90;;;;;;7393460;19;20014;-77
2023/11/28 10:22:10;;;;;;;9.05;4.85;;;9.90;99.90;;;;;;7381807;19;19928;-79
2023/11/28 10:24:40;;;;;;;7.55;4.82;;;10.10;99.90;;;;;;7413794;19;20013;-76
2023/11/28 10:27:15;;;;;;;13.25;6.63;;;10.20;99.90;;;;;;7392483;19;20078;-77
2023/11/28 10:29:43;;;;;;;11.38;5.43;;;10.40;99.90;;;;;;7389856;19;20010;-77
2023/11/28 10:43:32;;;;;;;13.87;5.87;;;10.50;99.90;;;;;;7395219;19;19978;-79
2023/11/28 10:46:19;;;;;;;;;;;;;;;;;;;;;
2023/11/28 10:49:06;;;;;;;10.95;5.90;;;10.60;99.90;;;;;;7414350;19;20014;-79
2023/11/28 10:51:48;;;;;;;9.40;5.63;;;10.40;99.90;;;;;;7391415;19;20014;-81
2023/11/28 10:57:30;;;;;;;8.45;5.68;;;10.60;99.90;;;;;;7410831;19;20021;-77
2023/11/28 11:11:38;;;;;;;13.10;3.63;;;10.30;99.90;;;;;;7376279;19;20267;-78
2023/11/28 11:14:18;;;;;;;8.43;3.67;;;10.40;99.90;;;;;;7379950;19;20088;-75
2023/11/28 11:16:57;;;;;;;8.43;3.70;;;10.50;99.90;;;;;;7380768;19;20260;-80
2023/11/28 11:22:13;;;;;;;;;;;10.60;99.90;;;;;;7385758;19;20006;-79
2023/11/28 11:24:43;;;;;;;4.63;3.28;;;10.70;99.90;;;;;;7402166;19;19909;-76
2023/11/28 11:27:15;;;;;;;6.97;4.07;;;10.70;99.90;;;;;;7383352;19;20003;-77
2023/11/28 11:29:43;;;;;;;;;;;10.50;99.90;;;;;;7380446;19;20027;-78
2023/11/28 11:32:18;;;;;;;9.00;3.03;;;10.50;99.90;;;;;;7382603;19;19911;-76
2023/11/28 11:34:48;;;;;;;10.00;4.20;;;10.40;99.90;;;;;;7383384;19;20371;-76
2023/11/28 11:37:18;;;;;;;3.70;2.88;;;10.40;99.90;;;;;;7381252;19;20701;-76
2023/11/28 11:53:26;;;;;;;7.32;2.65;;;10.20;99.90;;;;;;7379181;19;20422;-80
2023/11/28 11:55:57;;;;;;;4.22;2.50;;;10.20;99.90;;;;;;7379924;19;20010;-78
2023/11/28 11:58:28;;;;;;;5.15;2.55;;;10.20;99.90;;;;;;7380722;19;20027;-78
2023/11/28 12:00:57;;;;;;;4.87;2.70;;;10.30;99.90;;;;;;7381888;19;20082;-77
2023/11/28 12:03:26;;;;;;;4.20;2.47;;;10.10;99.90;;;;;;7405891;19;20013;-78
2023/11/28 12:05:57;;;;;;;3.80;2.78;;;10.20;99.90;;;;;;7380445;19;20045;-77
2023/11/28 12:08:34;;;;;;;6.28;3.63;;;10.40;99.90;;;;;;7382129;19;20021;-78
2023/11/28 12:11:11;;;;;;;8.77;3.03;;;10.50;99.90;;;;;;7377876;19;20003;-76
2023/11/28 12:13:41;;;;;;;4.68;2.70;;;10.40;99.90;;;;;;7378499;19;20721;-77
2023/11/28 12:16:12;;;;;;;4.70;2.77;;;10.40;99.90;;;;;;7377328;19;20409;-77
2023/11/28 12:18:51;;;;;;;4.65;2.75;;;10.40;99.90;;;;;;7398237;19;20007;-78
2023/11/28 12:24:39;;;;;;;9.75;3.10;;;10.60;99.90;;;;;;7384681;19;20007;-78
2023/11/28 12:27:08;;;;;;;11.38;3.05;;;10.70;99.90;;;;;;7408970;19;20369;-80
2023/11/28 12:29:38;;;;;;;6.75;3.38;;;10.70;99.90;;;;;;7386757;19;20006;-79
2023/11/28 12:32:11;;;;;;;8.85;3.25;;;10.70;99.90;;;;;;7385246;19;20003;-78
2023/11/28 12:34:45;;;;;;;15.85;3.42;;;10.70;99.90;;;;;;7384247;19;20007;-77
2023/11/28 12:37:14;;;;;;;18.80;3.20;;;10.50;99.90;;;;;;7378504;19;20006;-77
2023/11/28 12:39:46;;;;;;;4.32;2.50;;;10.40;99.90;;;;;;7407657;19;20010;-80
2023/11/28 12:42:17;;;;;;;6.40;2.92;;;10.30;99.90;;;;;;7388147;19;20263;-78
2023/11/28 12:44:46;;;;;;;5.50;2.53;;;10.40;99.90;;;;;;7377081;19;20065;-77
2023/11/28 12:47:14;;;;;;;3.60;2.25;;;10.50;99.90;;;;;;7380496;19;20015;-77
2023/11/28 12:49:45;;;;;;;4.28;2.40;;;10.50;99.90;;;;;;7388042;19;20010;-76
2023/11/28 12:52:23;;;;;;;3.65;2.42;;;10.60;99.90;;;;;;7391291;19;20060;-77
2023/11/28 13:00:16;;;;;;;11.35;2.10;;;10.70;99.90;;;;;;7377032;19;19999;-77
2023/11/28 13:02:48;;;;;;;6.07;2.25;;;10.80;99.90;;;;;;7386980;19;20358;-76
2023/11/28 13:05:16;;;;;;;4.30;2.47;;;10.90;99.90;;;;;;7389346;19;20003;-74
2023/11/28 13:07:45;;;;;;;3.78;2.38;;;11.00;99.90;;;;;;7384759;19;20390;-74
2023/11/28 13:10:14;;;;;;;5.82;2.47;;;11.10;99.90;;;;;;7388466;19;20055;-74
2023/11/28 13:12:43;;;;;;;5.53;2.40;;;11.20;99.90;;;;;;7407197;19;20067;-76
2023/11/28 13:15:15;;;;;;;7.82;2.47;;;11.20;99.90;;;;;;7387937;19;20248;-76
2023/11/28 13:17:47;;;;;;;10.63;2.45;;;11.10;99.90;;;;;;7385953;19;20339;-75
2023/11/28 13:20:21;;;;;;;6.95;2.45;;;11.10;99.90;;;;;;7386924;19;20065;-76
2023/11/28 13:25:25;;;;;;;6.47;2.47;;;11.20;99.90;;;;;;7377566;19;20011;-74
2023/11/28 13:27:55;;;;;;;5.05;2.25;;;10.90;99.90;;;;;;7388092;19;20010;-76
2023/11/28 13:30:25;;;;;;;6.05;2.38;;;10.80;99.90;;;;;;7408434;19;20039;-76
2023/11/28 13:32:58;;;;;;;5.93;2.65;;;10.80;99.90;;;;;;7386879;19;20153;-76
2023/11/28 13:35:29;;;;;;;9.95;2.88;;;11.00;99.90;;;;;;7385130;19;20388;-75
2023/11/28 13:38:00;;;;;;;4.22;2.53;;;11.00;99.90;;;;;;7391833;19;20027;-78
2023/11/28 13:40:45;;;;;;;;;;;10.90;99.90;;;;;;7390520;19;20002;-78
2023/11/28 13:43:28;;;;;;;7.45;2.67;;;11.10;99.90;;;;;;7393823;19;19922;-81
2023/11/28 13:45:58;;;;;;;5.38;2.38;;;11.10;99.90;;;;;;7385652;19;20007;-77
2023/11/28 13:48:30;;;;;;;7.75;2.45;;;11.20;99.90;;;;;;7405998;19;20013;-77
2023/11/28 13:50:59;;;;;;;3.55;2.03;;;11.20;99.90;;;;;;7383705;19;20007;-76
2023/11/28 13:53:29;;;;;;;8.30;2.38;;;11.00;99.90;;;;;;7385293;19;20006;-76
2023/11/28 13:55:57;;;;;;;9.05;2.60;;;10.80;99.90;;;;;;7385889;19;20503;-77
2023/11/28 13:58:27;;;;;;;7.65;2.20;;;10.90;99.90;;;;;;7385041;19;20013;-75
2023/11/28 14:00:56;;;;;;;8.82;2.25;;;10.90;99.90;;;;;;7384475;19;20357;-76
2023/11/28 14:03:25;;;;;;;4.65;2.15;;;10.80;99.90;;;;;;7405789;19;20030;-76
2023/11/28 14:05:58;;;;;;;3.53;2.00;;;10.80;99.90;;;;;;7387243;19;20006;-78
2023/11/28 14:08:27;;;;;;;4.25;2.50;;;10.70;99.90;;;;;;7385631;19;20211;-77
2023/11/28 14:10:57;;;;;;;8.90;2.20;;;10.80;99.90;;;;;;7384065;19;20016;-77
2023/11/28 14:13:26;;;;;;;3.67;2.33;;;10.90;99.90;;;;;;7383178;19;20066;-76
2023/11/28 14:16:24;;;;;;;6.05;2.17;;;11.00;99.90;;;;;;7403986;19;20015;-81
2023/11/28 14:18:54;;;;;;;6.47;1.88;;;10.90;99.90;;;;;;7282682;19;2004715;-79
2023/11/28 14:21:39;;;;;;;6.40;2.25;;;11.00;99.90;;;;;;7411062;19;20002;-76